Time;durP1;ratioP1;P1;durP2;ratioP2;P2;SDS_P1;SDS_P2;PMS_P1;PMS_P2;Temp;Humidity;BMP_temperature;BMP_pressure;BME280_temperature;BME280_humidity;BME280_pressure;Samples;Min_cycle;Max_cycle;Signal;HPM_P1;HPM_P2
2023/03/13 00:01:21;;;;;;;10.83;3.67;;;13.10;99.90;;;;;;5049958;28;20434;-66
2023/03/13 00:03:47;;;;;;;10.63;3.80;;;13.10;99.90;;;;;;5053580;28;20191;-67
2023/03/13 00:06:14;;;;;;;7.03;2.63;;;13.00;99.90;;;;;;5049534;28;20488;-66
2023/03/13 00:08:40;;;;;;;7.73;3.30;;;13.10;99.90;;;;;;5054190;28;21173;-65
2023/03/13 00:11:07;;;;;;;8.53;2.77;;;13.10;99.90;;;;;;5051019;28;20429;-65
2023/03/13 00:13:33;;;;;;;12.87;3.37;;;13.10;99.90;;;;;;5050951;28;20539;-65
2023/03/13 00:16:05;;;;;;;9.33;3.43;;;13.10;99.90;;;;;;5049910;28;20508;-65
2023/03/13 00:18:30;;;;;;;11.77;4.43;;;13.10;99.90;;;;;;5053299;28;20437;-65
2023/03/13 00:21:08;;;;;;;8.40;3.33;;;13.10;99.90;;;;;;5051373;28;20495;-66
2023/03/13 00:23:36;;;;;;;8.93;4.07;;;13.20;99.90;;;;;;5054590;28;20182;-65
2023/03/13 00:26:04;;;;;;;7.57;3.13;;;13.20;99.90;;;;;;5050913;28;20502;-65
2023/03/13 00:28:32;;;;;;;7.30;3.30;;;13.20;99.90;;;;;;5053308;28;20433;-65
2023/03/13 00:31:12;;;;;;;9.83;3.70;;;13.20;99.90;;;;;;5053636;28;20913;-65
2023/03/13 00:33:41;;;;;;;7.03;3.33;;;13.20;99.90;;;;;;5051660;28;20507;-65
2023/03/13 00:36:09;;;;;;;9.77;3.00;;;13.20;99.90;;;;;;5052749;28;20473;-65
2023/03/13 00:38:35;;;;;;;7.13;3.23;;;13.20;99.90;;;;;;5052635;28;21002;-65
2023/03/13 00:41:07;;;;;;;8.83;3.13;;;13.20;99.90;;;;;;5051604;28;20428;-65
2023/03/13 00:43:33;;;;;;;6.53;3.03;;;13.20;99.90;;;;;;5053200;28;20634;-65
2023/03/13 00:45:59;;;;;;;6.83;2.80;;;13.20;99.90;;;;;;5050406;28;20444;-66
2023/03/13 00:48:25;;;;;;;7.70;3.23;;;13.20;99.90;;;;;;5047730;28;20442;-66
2023/03/13 00:50:51;;;;;;;7.63;2.97;;;13.30;99.90;;;;;;5050293;28;20460;-66
2023/03/13 00:53:16;;;;;;;7.50;3.23;;;13.30;99.90;;;;;;5052647;28;20198;-67
2023/03/13 00:55:55;;;;;;;7.10;2.60;;;13.30;99.90;;;;;;5049221;28;20364;-66
2023/03/13 00:58:22;;;;;;;7.70;2.93;;;13.40;99.90;;;;;;5049383;28;20179;-66
2023/03/13 01:00:48;;;;;;;20.47;5.10;;;13.40;99.90;;;;;;5049114;28;20437;-65
2023/03/13 01:03:14;;;;;;;13.77;3.50;;;13.40;99.90;;;;;;5048438;28;20433;-65
2023/03/13 01:05:39;;;;;;;6.67;2.90;;;13.40;99.90;;;;;;5052838;28;20547;-66
2023/03/13 01:08:05;;;;;;;9.93;2.90;;;13.40;99.90;;;;;;5049279;28;21184;-66
2023/03/13 01:10:30;;;;;;;4.33;2.57;;;13.40;99.90;;;;;;5049455;28;20202;-66
2023/03/13 01:12:56;;;;;;;9.07;2.97;;;13.40;99.90;;;;;;5053274;28;20248;-66
2023/03/13 01:15:23;;;;;;;9.13;3.10;;;13.50;99.90;;;;;;5052027;28;20207;-66
2023/03/13 01:17:48;;;;;;;12.67;3.27;;;13.50;99.90;;;;;;5048203;28;20223;-66
2023/03/13 01:20:14;;;;;;;5.07;2.70;;;13.40;99.90;;;;;;5048572;28;20872;-66
2023/03/13 01:22:40;;;;;;;7.13;2.60;;;13.50;99.90;;;;;;5054865;28;20186;-66
2023/03/13 01:25:06;;;;;;;6.93;2.70;;;13.50;99.90;;;;;;5047274;28;20442;-66
2023/03/13 01:27:31;;;;;;;7.20;2.80;;;13.50;99.90;;;;;;5043886;28;20302;-66
2023/03/13 01:29:57;;;;;;;7.40;2.53;;;13.50;99.90;;;;;;5043597;28;20514;-66
2023/03/13 01:32:22;;;;;;;7.27;2.73;;;13.50;99.90;;;;;;5046215;28;20238;-66
2023/03/13 01:34:48;;;;;;;5.90;2.70;;;13.60;99.90;;;;;;5051025;28;20260;-66
2023/03/13 01:37:14;;;;;;;10.33;2.70;;;13.60;99.90;;;;;;5050114;28;20200;-66
2023/03/13 01:39:40;;;;;;;5.53;2.60;;;13.50;99.90;;;;;;5049927;28;20179;-66
2023/03/13 01:42:06;;;;;;;4.50;2.27;;;13.50;99.90;;;;;;5049793;28;20442;-66
2023/03/13 01:44:56;;;;;;;8.30;3.30;;;13.50;99.90;;;;;;5047669;28;21562;-66
2023/03/13 01:47:23;;;;;;;7.43;2.67;;;13.50;99.90;;;;;;5047203;28;20223;-66
2023/03/13 01:49:51;;;;;;;6.17;2.67;;;13.60;99.90;;;;;;5050090;28;20445;-66
2023/03/13 01:52:30;;;;;;;4.80;2.33;;;13.60;99.90;;;;;;5046196;28;20442;-66
2023/03/13 01:55:12;;;;;;;9.33;2.70;;;13.60;99.90;;;;;;5047744;28;20532;-66
2023/03/13 01:57:45;;;;;;;4.43;2.23;;;13.50;99.90;;;;;;5046964;28;20454;-66
2023/03/13 02:00:18;;;;;;;8.33;2.47;;;13.50;99.90;;;;;;5045344;28;21950;-66
2023/03/13 02:02:49;;;;;;;11.47;2.37;;;13.50;99.90;;;;;;5053092;28;20492;-66
2023/03/13 02:05:16;;;;;;;4.97;2.00;;;13.50;99.90;;;;;;5051984;28;20440;-66
2023/03/13 02:08:10;;;;;;;4.90;2.03;;;13.50;99.90;;;;;;5049444;28;20482;-66
2023/03/13 02:10:43;;;;;;;5.27;2.10;;;13.40;99.90;;;;;;5053772;28;20441;-66
2023/03/13 02:13:13;;;;;;;4.23;2.30;;;13.40;99.90;;;;;;5048525;28;20565;-66
2023/03/13 02:15:40;;;;;;;7.80;2.47;;;13.40;99.90;;;;;;5048557;28;20466;-66
2023/03/13 02:18:05;;;;;;;5.10;2.23;;;13.40;99.90;;;;;;5051718;28;20465;-66
2023/03/13 02:20:31;;;;;;;4.80;2.10;;;13.40;99.90;;;;;;5049092;28;21018;-66
2023/03/13 02:23:32;;;;;;;5.37;1.97;;;13.30;99.90;;;;;;5049126;28;20180;-66
2023/03/13 02:25:58;;;;;;;5.23;1.90;;;13.20;99.90;;;;;;4993886;28;20567;-66
2023/03/13 02:28:32;;;;;;;4.37;2.40;;;13.30;99.90;;;;;;5049563;28;20468;-66
2023/03/13 02:30:57;;;;;;;4.93;2.13;;;13.30;99.90;;;;;;5046272;28;20184;-66
2023/03/13 02:33:27;;;;;;;4.37;2.77;;;13.30;99.90;;;;;;5050307;28;20458;-66
2023/03/13 02:35:53;;;;;;;6.13;2.00;;;13.30;99.90;;;;;;5045561;28;20285;-66
2023/03/13 02:38:24;;;;;;;6.40;3.57;;;13.30;99.90;;;;;;5051399;28;21070;-66
2023/03/13 02:40:52;;;;;;;4.40;1.93;;;13.20;99.90;;;;;;5052043;28;20921;-66
2023/03/13 02:43:24;;;;;;;3.73;1.80;;;13.30;99.90;;;;;;5051778;28;20846;-66
2023/03/13 02:46:00;;;;;;;4.40;2.10;;;13.30;99.90;;;;;;5052587;28;20454;-65
2023/03/13 02:48:32;;;;;;;5.77;2.63;;;13.30;99.90;;;;;;5045916;28;20469;-65
2023/03/13 02:50:57;;;;;;;5.87;1.83;;;13.30;99.90;;;;;;5050973;28;20468;-65
2023/03/13 02:53:23;;;;;;;4.70;1.93;;;13.30;99.90;;;;;;5049124;28;20458;-64
2023/03/13 02:55:49;;;;;;;6.10;3.07;;;13.30;99.90;;;;;;5051784;28;20222;-65
2023/03/13 02:58:14;;;;;;;2.17;1.70;;;13.30;99.90;;;;;;5052029;28;20198;-65
2023/03/13 03:00:40;;;;;;;5.00;2.20;;;13.30;99.90;;;;;;5049923;28;20179;-65
2023/03/13 03:03:05;;;;;;;3.23;2.00;;;13.30;99.90;;;;;;5049187;28;20217;-66
2023/03/13 03:05:31;;;;;;;7.20;2.00;;;13.30;99.90;;;;;;5048142;28;20268;-66
2023/03/13 03:07:56;;;;;;;3.50;1.80;;;13.30;99.90;;;;;;5054110;28;20213;-65
2023/03/13 03:10:22;;;;;;;3.77;2.10;;;13.30;99.90;;;;;;5048977;28;20205;-66
2023/03/13 03:12:47;;;;;;;4.40;1.80;;;13.30;99.90;;;;;;5055050;28;20604;-65
2023/03/13 03:15:13;;;;;;;4.30;2.13;;;13.30;99.90;;;;;;5054105;28;20221;-66
2023/03/13 03:17:39;;;;;;;4.47;1.90;;;13.30;99.90;;;;;;5053091;28;20204;-66
2023/03/13 03:20:10;;;;;;;2.33;1.50;;;13.40;99.90;;;;;;5053710;28;20184;-66
2023/03/13 03:22:37;;;;;;;3.80;1.80;;;13.40;99.90;;;;;;5051594;28;21191;-66
2023/03/13 03:25:05;;;;;;;2.47;1.50;;;13.40;99.90;;;;;;5054910;28;20448;-66
2023/03/13 03:27:31;;;;;;;6.43;2.00;;;13.30;99.90;;;;;;5052817;28;20468;-66
2023/03/13 03:29:56;;;;;;;3.27;1.50;;;13.40;99.90;;;;;;5050183;28;20483;-66
2023/03/13 03:32:22;;;;;;;4.27;1.60;;;13.40;99.90;;;;;;5052128;28;21173;-66
2023/03/13 03:34:47;;;;;;;4.60;1.60;;;13.30;99.90;;;;;;5050535;28;20644;-66
2023/03/13 03:37:13;;;;;;;4.17;1.60;;;13.30;99.90;;;;;;5051175;28;20677;-66
2023/03/13 03:39:38;;;;;;;6.93;1.67;;;13.30;99.90;;;;;;5054339;28;20562;-66
2023/03/13 03:42:04;;;;;;;3.80;1.70;;;13.20;99.90;;;;;;5055606;28;20549;-66
2023/03/13 03:44:30;;;;;;;3.57;1.60;;;13.30;99.90;;;;;;5052680;28;20790;-66
2023/03/13 03:46:55;;;;;;;4.53;1.70;;;13.30;99.90;;;;;;5053251;28;20222;-67
2023/03/13 03:49:21;;;;;;;2.40;1.30;;;13.30;99.90;;;;;;5053972;28;20188;-66
2023/03/13 03:51:48;;;;;;;4.63;1.77;;;13.30;99.90;;;;;;5049596;28;20226;-65
2023/03/13 03:54:13;;;;;;;3.30;1.60;;;13.30;99.90;;;;;;5047404;28;20279;-65
2023/03/13 03:56:39;;;;;;;3.63;1.70;;;13.30;99.90;;;;;;5049895;28;20469;-66
2023/03/13 03:59:04;;;;;;;3.43;1.60;;;13.30;99.90;;;;;;5049715;28;20361;-66
2023/03/13 04:01:30;;;;;;;4.67;1.40;;;13.30;99.90;;;;;;5050881;28;20708;-66
2023/03/13 04:03:55;;;;;;;4.73;2.00;;;13.20;99.90;;;;;;5048845;28;20266;-65
2023/03/13 04:06:21;;;;;;;4.90;1.80;;;13.20;99.90;;;;;;5051798;28;20706;-65
2023/03/13 04:08:46;;;;;;;2.33;1.50;;;13.30;99.90;;;;;;5052365;28;20183;-64
2023/03/13 04:11:12;;;;;;;4.80;1.90;;;13.20;99.90;;;;;;5053916;28;20187;-65
2023/03/13 04:13:38;;;;;;;2.87;1.70;;;13.20;99.90;;;;;;5052597;28;20190;-66
2023/03/13 04:16:10;;;;;;;7.63;1.50;;;13.30;99.90;;;;;;5053006;28;20230;-65
2023/03/13 04:18:35;;;;;;;2.90;1.70;;;13.30;99.90;;;;;;5048090;28;20236;-65
2023/03/13 04:21:02;;;;;;;3.60;2.30;;;13.20;99.90;;;;;;5050442;28;20434;-65
2023/03/13 04:23:28;;;;;;;5.27;1.97;;;13.20;99.90;;;;;;5052259;28;20179;-65
2023/03/13 04:25:53;;;;;;;2.87;1.40;;;13.20;99.90;;;;;;5049771;28;20433;-66
2023/03/13 04:28:19;;;;;;;5.63;1.70;;;13.20;99.90;;;;;;5047665;28;20496;-66
2023/03/13 04:30:44;;;;;;;6.47;1.73;;;13.30;99.90;;;;;;5048700;28;20561;-66
2023/03/13 04:33:10;;;;;;;2.43;1.60;;;13.30;99.90;;;;;;5048993;28;20826;-66
2023/03/13 04:35:35;;;;;;;3.97;1.67;;;13.30;99.90;;;;;;5051254;28;20199;-65
2023/03/13 04:38:01;;;;;;;2.53;1.70;;;13.30;99.90;;;;;;5050162;28;20212;-66
2023/03/13 04:40:27;;;;;;;3.93;1.87;;;13.40;99.90;;;;;;5051163;28;20180;-66
2023/03/13 04:42:53;;;;;;;3.40;1.60;;;13.40;99.90;;;;;;5053238;28;20179;-65
2023/03/13 04:45:18;;;;;;;2.23;1.47;;;13.40;99.90;;;;;;5052488;28;20476;-65
2023/03/13 04:47:45;;;;;;;4.20;1.90;;;13.40;99.90;;;;;;5053566;28;20674;-67
2023/03/13 04:50:11;;;;;;;2.13;1.50;;;13.50;99.90;;;;;;5051350;28;20207;-66
2023/03/13 04:52:39;;;;;;;2.07;1.53;;;13.50;99.90;;;;;;5050908;28;20462;-66
2023/03/13 04:55:05;;;;;;;4.40;2.03;;;13.50;99.90;;;;;;5051676;28;20194;-66
2023/03/13 04:57:30;;;;;;;3.27;1.73;;;13.50;99.90;;;;;;5047776;28;20449;-66
2023/03/13 04:59:56;;;;;;;2.97;1.80;;;13.50;99.90;;;;;;5050673;28;20421;-65
2023/03/13 05:02:22;;;;;;;3.20;1.50;;;13.50;99.90;;;;;;5053347;28;20205;-66
2023/03/13 05:04:47;;;;;;;3.03;1.90;;;13.50;99.90;;;;;;5053864;28;21004;-67
2023/03/13 05:07:13;;;;;;;2.33;1.57;;;13.50;99.90;;;;;;5048151;28;20195;-66
2023/03/13 05:09:39;;;;;;;2.87;1.67;;;13.50;99.90;;;;;;5047436;28;20215;-66
2023/03/13 05:12:04;;;;;;;3.23;1.53;;;13.50;99.90;;;;;;5052608;28;20214;-66
2023/03/13 05:14:30;;;;;;;3.90;2.03;;;13.50;99.90;;;;;;5054234;28;20179;-66
2023/03/13 05:16:55;;;;;;;3.00;1.40;;;13.50;99.90;;;;;;5053900;28;20219;-66
2023/03/13 05:19:21;;;;;;;2.10;1.40;;;13.50;99.90;;;;;;5053375;28;20190;-66
2023/03/13 05:21:47;;;;;;;1.90;1.33;;;13.40;99.90;;;;;;5052198;28;20558;-67
2023/03/13 05:24:12;;;;;;;2.70;1.70;;;13.40;99.90;;;;;;5048545;28;20180;-67
2023/03/13 05:26:38;;;;;;;1.83;1.37;;;13.30;99.90;;;;;;5049404;28;20249;-66
2023/03/13 05:29:03;;;;;;;1.80;1.30;;;13.30;99.90;;;;;;5049805;28;20308;-66
2023/03/13 05:31:29;;;;;;;2.70;1.50;;;13.30;99.90;;;;;;5052037;28;20705;-64
2023/03/13 05:33:54;;;;;;;1.80;1.20;;;13.40;99.90;;;;;;5049940;28;20226;-64
2023/03/13 05:36:20;;;;;;;3.37;1.53;;;13.40;99.90;;;;;;5051357;28;20285;-66
2023/03/13 05:38:45;;;;;;;1.60;1.27;;;13.40;99.90;;;;;;5046678;28;20184;-67
2023/03/13 05:41:11;;;;;;;2.50;1.20;;;13.40;99.90;;;;;;5049856;28;20274;-67
2023/03/13 05:43:36;;;;;;;2.00;1.23;;;13.40;99.90;;;;;;5050863;28;20179;-68
2023/03/13 05:46:02;;;;;;;1.80;1.30;;;13.40;99.90;;;;;;5053282;28;20356;-65
2023/03/13 05:48:28;;;;;;;2.03;1.20;;;13.40;99.90;;;;;;5048026;28;20186;-67
2023/03/13 05:50:54;;;;;;;2.23;1.33;;;13.40;99.90;;;;;;5052565;28;20541;-66
2023/03/13 05:53:20;;;;;;;2.50;1.37;;;13.40;99.90;;;;;;5051900;28;20451;-67
2023/03/13 05:55:45;;;;;;;1.80;1.40;;;13.40;99.90;;;;;;5041886;28;20685;-67
2023/03/13 05:58:11;;;;;;;3.13;1.30;;;13.40;99.90;;;;;;5048639;28;20207;-67
2023/03/13 06:00:36;;;;;;;2.17;1.40;;;13.40;99.90;;;;;;5049383;28;20194;-67
2023/03/13 06:03:02;;;;;;;4.73;1.50;;;13.50;99.90;;;;;;5048138;28;20205;-67
2023/03/13 06:05:28;;;;;;;1.70;1.10;;;13.50;99.90;;;;;;5050503;28;20187;-67
2023/03/13 06:07:53;;;;;;;2.43;1.50;;;13.50;99.90;;;;;;5049742;28;20223;-67
2023/03/13 06:10:19;;;;;;;2.00;1.30;;;13.50;99.90;;;;;;5051015;28;20684;-67
2023/03/13 06:12:52;;;;;;;2.27;1.40;;;13.60;99.90;;;;;;5052839;28;20687;-67
2023/03/13 06:15:17;;;;;;;1.70;1.10;;;13.60;99.90;;;;;;5055732;28;20310;-67
2023/03/13 06:17:43;;;;;;;1.80;1.30;;;13.60;99.90;;;;;;5045988;28;20610;-67
2023/03/13 06:20:10;;;;;;;3.17;1.50;;;13.60;99.90;;;;;;5052411;28;20378;-67
2023/03/13 06:22:36;;;;;;;3.50;1.30;;;13.60;99.90;;;;;;5052467;28;20175;-67
2023/03/13 06:25:01;;;;;;;3.67;1.37;;;13.60;99.90;;;;;;5048716;28;20946;-67
2023/03/13 06:27:27;;;;;;;4.40;3.07;;;13.60;99.90;;;;;;5044309;28;20584;-67
2023/03/13 06:29:52;;;;;;;1.70;1.20;;;13.50;99.90;;;;;;5045226;28;20270;-67
2023/03/13 06:32:18;;;;;;;3.40;1.30;;;13.60;99.90;;;;;;5051251;28;20193;-67
2023/03/13 06:34:43;;;;;;;1.90;1.30;;;13.60;99.90;;;;;;5049760;28;20302;-66
2023/03/13 06:37:09;;;;;;;2.20;1.40;;;13.60;99.90;;;;;;5050424;28;20223;-65
2023/03/13 06:39:34;;;;;;;3.40;1.20;;;13.50;99.90;;;;;;5047900;28;20180;-64
2023/03/13 06:42:00;;;;;;;2.90;1.40;;;13.60;99.90;;;;;;5050225;28;20579;-66
2023/03/13 06:44:26;;;;;;;2.00;1.40;;;13.50;99.90;;;;;;5048633;28;20186;-66
2023/03/13 06:46:51;;;;;;;3.83;3.43;;;13.50;99.90;;;;;;5048882;28;20226;-66
2023/03/13 06:49:17;;;;;;;2.90;1.37;;;13.50;99.90;;;;;;5048924;28;20533;-66
2023/03/13 06:51:42;;;;;;;1.83;1.30;;;13.60;99.90;;;;;;5051886;28;20190;-66
2023/03/13 06:54:08;;;;;;;3.17;1.60;;;13.60;99.90;;;;;;5048369;28;20274;-67
2023/03/13 06:56:33;;;;;;;4.33;1.30;;;13.60;99.90;;;;;;5048391;28;20265;-66
2023/03/13 06:58:59;;;;;;;2.37;1.40;;;13.60;99.90;;;;;;5050825;28;20218;-66
2023/03/13 07:01:24;;;;;;;2.60;1.50;;;13.60;99.90;;;;;;5049159;28;20183;-65
2023/03/13 07:03:50;;;;;;;2.93;1.50;;;13.60;99.90;;;;;;5047123;28;20259;-66
2023/03/13 07:06:17;;;;;;;4.50;1.27;;;13.60;99.90;;;;;;5052407;28;20206;-65
2023/03/13 07:08:43;;;;;;;2.63;1.70;;;13.60;99.90;;;;;;5049069;28;20552;-66
2023/03/13 07:11:11;;;;;;;2.10;1.57;;;13.60;99.90;;;;;;5050780;28;20448;-66
2023/03/13 07:13:37;;;;;;;2.90;1.50;;;13.60;99.90;;;;;;5048200;28;20882;-65
2023/03/13 07:16:06;;;;;;;1.90;1.37;;;13.70;99.90;;;;;;5049728;28;21049;-65
2023/03/13 07:18:33;;;;;;;1.87;1.27;;;13.70;99.90;;;;;;5046921;28;20984;-66
2023/03/13 07:21:00;;;;;;;1.93;1.30;;;13.70;99.90;;;;;;5049921;28;20465;-66
2023/03/13 07:23:28;;;;;;;1.90;1.40;;;13.70;99.90;;;;;;5045018;28;20528;-65
2023/03/13 07:25:59;;;;;;;3.87;1.20;;;13.80;99.90;;;;;;5044150;28;20438;-65
2023/03/13 07:28:26;;;;;;;2.77;1.50;;;13.80;99.90;;;;;;5046580;28;20995;-66
2023/03/13 07:30:51;;;;;;;2.47;1.47;;;13.90;99.90;;;;;;5048011;28;20438;-66
2023/03/13 07:33:17;;;;;;;2.50;1.40;;;14.00;99.90;;;;;;5050421;28;20445;-66
2023/03/13 07:35:48;;;;;;;2.03;1.30;;;14.00;99.90;;;;;;5046367;28;20222;-68
2023/03/13 07:38:13;;;;;;;1.83;1.30;;;14.00;99.90;;;;;;5044878;28;20188;-67
2023/03/13 07:40:39;;;;;;;1.60;1.20;;;14.00;99.90;;;;;;5046517;28;20456;-65
2023/03/13 07:43:04;;;;;;;5.50;2.43;;;14.10;99.90;;;;;;5050185;28;20211;-65
2023/03/13 07:45:30;;;;;;;3.30;1.30;;;14.10;99.90;;;;;;5052127;28;20194;-66
2023/03/13 07:47:56;;;;;;;1.70;1.30;;;14.20;99.90;;;;;;5047293;28;20219;-66
2023/03/13 07:50:21;;;;;;;1.83;1.30;;;14.30;99.90;;;;;;5048071;28;20214;-66
2023/03/13 07:52:47;;;;;;;2.40;1.30;;;14.30;99.90;;;;;;5043476;28;20815;-66
2023/03/13 07:55:12;;;;;;;2.83;1.40;;;14.40;99.90;;;;;;5040492;28;20660;-65
2023/03/13 07:57:38;;;;;;;1.80;1.30;;;14.40;99.90;;;;;;5046295;28;20206;-66
2023/03/13 08:00:08;;;;;;;1.67;1.30;;;14.40;99.90;;;;;;5047784;28;20625;-65
2023/03/13 08:02:34;;;;;;;2.20;1.30;;;14.50;99.90;;;;;;5045147;28;20188;-66
2023/03/13 08:04:59;;;;;;;3.90;1.30;;;14.50;99.90;;;;;;5051763;28;20437;-66
2023/03/13 08:07:25;;;;;;;1.83;1.33;;;14.60;99.90;;;;;;5048026;28;20207;-66
2023/03/13 08:09:51;;;;;;;2.97;1.20;;;14.70;99.90;;;;;;5047857;28;20262;-67
2023/03/13 08:12:16;;;;;;;2.47;1.50;;;14.70;99.90;;;;;;5053909;28;20183;-66
2023/03/13 08:14:42;;;;;;;2.53;1.40;;;14.70;99.90;;;;;;5052002;28;20188;-66
2023/03/13 08:17:07;;;;;;;2.00;1.57;;;14.80;99.90;;;;;;5049138;28;20453;-67
2023/03/13 08:19:33;;;;;;;1.57;1.20;;;14.80;99.90;;;;;;5049873;28;20192;-66
2023/03/13 08:21:58;;;;;;;2.83;1.30;;;14.90;99.90;;;;;;5052279;28;20175;-65
2023/03/13 08:24:24;;;;;;;1.97;1.40;;;14.90;99.90;;;;;;5055377;28;20453;-66
2023/03/13 08:26:49;;;;;;;2.67;1.40;;;15.00;99.90;;;;;;5050491;28;21368;-65
2023/03/13 08:29:15;;;;;;;2.00;1.50;;;15.00;99.90;;;;;;5049230;28;20199;-65
2023/03/13 08:31:48;;;;;;;2.37;1.47;;;15.00;99.90;;;;;;5051254;28;20176;-66
2023/03/13 08:34:16;;;;;;;1.80;1.40;;;15.00;99.90;;;;;;5046294;28;20553;-65
2023/03/13 08:36:42;;;;;;;2.43;1.50;;;15.00;99.90;;;;;;5047464;28;20472;-65
2023/03/13 08:39:16;;;;;;;2.33;1.60;;;15.00;99.90;;;;;;5051183;28;20449;-65
2023/03/13 08:41:42;;;;;;;2.10;1.50;;;15.10;99.90;;;;;;5054047;28;20549;-66
2023/03/13 08:44:10;;;;;;;2.13;1.40;;;15.00;99.90;;;;;;5049313;28;20461;-65
2023/03/13 08:46:36;;;;;;;3.00;1.30;;;15.10;99.90;;;;;;5053117;28;20233;-65
2023/03/13 08:49:03;;;;;;;2.33;1.60;;;15.10;99.90;;;;;;5042645;28;20953;-64
2023/03/13 08:51:29;;;;;;;6.73;1.60;;;15.10;99.90;;;;;;5050926;28;20210;-67
2023/03/13 08:53:55;;;;;;;3.40;1.93;;;15.10;99.90;;;;;;5046382;28;21546;-64
2023/03/13 08:56:23;;;;;;;2.80;1.60;;;15.20;99.90;;;;;;5051293;28;20265;-65
2023/03/13 08:58:57;;;;;;;5.73;1.70;;;15.30;99.90;;;;;;5052920;28;20446;-68
2023/03/13 09:01:25;;;;;;;2.47;1.50;;;15.30;99.90;;;;;;5052241;28;20598;-64
2023/03/13 09:03:51;;;;;;;2.80;2.50;;;15.30;99.90;;;;;;5042267;28;20514;-64
2023/03/13 09:06:17;;;;;;;1.60;1.30;;;15.40;99.90;;;;;;5045600;28;20585;-65
2023/03/13 09:08:43;;;;;;;2.60;1.60;;;15.40;99.90;;;;;;5047239;28;20437;-65
2023/03/13 09:11:12;;;;;;;2.60;1.60;;;15.40;99.90;;;;;;5046181;28;20199;-65
2023/03/13 09:13:40;;;;;;;1.87;1.50;;;15.50;99.90;;;;;;5045882;28;20442;-65
2023/03/13 09:16:11;;;;;;;1.97;1.60;;;15.60;99.90;;;;;;5047468;28;20801;-65
2023/03/13 09:18:37;;;;;;;2.00;1.50;;;15.70;99.90;;;;;;5049630;28;20896;-64
2023/03/13 09:21:06;;;;;;;3.60;1.60;;;15.80;99.90;;;;;;5045637;28;20458;-64
2023/03/13 09:23:32;;;;;;;2.93;1.60;;;15.90;99.90;;;;;;5050366;28;20445;-65
2023/03/13 09:25:57;;;;;;;4.60;1.90;;;16.10;99.90;;;;;;5044781;28;20523;-67
2023/03/13 09:28:24;;;;;;;2.57;1.67;;;16.20;99.90;;;;;;5043972;28;20254;-66
2023/03/13 09:30:51;;;;;;;2.73;1.80;;;16.30;99.90;;;;;;5049743;28;20183;-66
2023/03/13 09:33:17;;;;;;;4.20;1.87;;;16.40;99.90;;;;;;5048582;28;20445;-66
2023/03/13 09:35:49;;;;;;;4.40;2.03;;;16.60;99.90;;;;;;5051488;28;20468;-66
2023/03/13 09:38:18;;;;;;;4.00;1.90;;;16.70;99.90;;;;;;5049294;28;20421;-67
2023/03/13 09:40:49;;;;;;;3.13;1.47;;;16.60;99.90;;;;;;5049971;28;20422;-66
2023/03/13 09:43:40;;;;;;;2.30;1.67;;;16.70;99.90;;;;;;5050238;28;20490;-66
2023/03/13 09:46:13;;;;;;;2.43;1.40;;;16.70;99.90;;;;;;5052894;28;20532;-66
2023/03/13 09:48:47;;;;;;;2.20;1.70;;;16.60;99.90;;;;;;5049172;28;20450;-66
2023/03/13 09:51:35;;;;;;;3.07;2.00;;;16.70;99.90;;;;;;5054025;28;20471;-66
2023/03/13 09:54:04;;;;;;;3.10;1.93;;;16.70;99.90;;;;;;5049074;28;20417;-66
2023/03/13 09:56:39;;;;;;;2.90;1.90;;;16.80;99.90;;;;;;5054659;28;20527;-67
2023/03/13 09:59:14;;;;;;;2.23;1.60;;;16.80;99.90;;;;;;5050516;28;20461;-66
2023/03/13 10:01:41;;;;;;;2.70;1.87;;;16.70;99.90;;;;;;5043146;28;20582;-67
2023/03/13 10:04:18;;;;;;;2.63;2.00;;;16.70;99.90;;;;;;5053125;28;20478;-67
2023/03/13 10:06:46;;;;;;;2.60;1.73;;;16.70;99.90;;;;;;5049860;28;20466;-66
2023/03/13 10:09:22;;;;;;;2.73;1.77;;;16.70;99.90;;;;;;5051829;28;20469;-67
2023/03/13 10:12:11;;;;;;;2.50;1.80;;;16.60;99.90;;;;;;5052425;28;20441;-67
2023/03/13 10:15:07;;;;;;;3.57;2.00;;;16.90;99.90;;;;;;5055500;28;20461;-67
2023/03/13 10:17:37;;;;;;;3.40;2.03;;;17.00;99.90;;;;;;5040531;28;20569;-70
2023/03/13 10:20:24;;;;;;;2.60;2.10;;;17.10;99.90;;;;;;5044498;28;20434;-70
2023/03/13 10:22:59;;;;;;;4.10;1.90;;;17.20;99.90;;;;;;5046234;28;20445;-67
2023/03/13 10:25:33;;;;;;;2.40;1.77;;;17.10;99.90;;;;;;5051941;28;20871;-71
2023/03/13 10:28:00;;;;;;;2.30;1.90;;;17.10;99.90;;;;;;5048408;28;20547;-72
2023/03/13 10:30:34;;;;;;;4.00;2.37;;;17.20;99.90;;;;;;5050713;28;20499;-71
2023/03/13 10:33:24;;;;;;;2.93;2.00;;;17.20;99.90;;;;;;5046706;28;20437;-67
2023/03/13 10:36:04;;;;;;;2.67;2.00;;;17.20;99.90;;;;;;5045711;28;20457;-68
2023/03/13 10:38:44;;;;;;;3.87;2.00;;;17.20;99.90;;;;;;5044816;28;20516;-68
2023/03/13 10:41:29;;;;;;;5.90;2.13;;;17.10;99.90;;;;;;5048245;28;20419;-69
2023/03/13 10:44:18;;;;;;;3.30;2.20;;;17.10;99.90;;;;;;5044175;28;20549;-67
2023/03/13 10:46:46;;;;;;;2.43;2.00;;;17.10;99.90;;;;;;5046169;28;20499;-67
2023/03/13 10:49:18;;;;;;;3.77;2.27;;;17.40;99.90;;;;;;5048119;28;20466;-67
2023/03/13 10:51:49;;;;;;;3.03;1.80;;;17.60;99.90;;;;;;5050328;28;20438;-66
2023/03/13 10:54:22;;;;;;;2.37;1.83;;;17.70;99.90;;;;;;5052373;28;20520;-68
2023/03/13 10:56:49;;;;;;;3.00;2.13;;;17.90;99.90;;;;;;5049378;28;20454;-67
2023/03/13 10:59:24;;;;;;;3.90;2.20;;;17.80;99.90;;;;;;5044818;28;20547;-67
2023/03/13 11:01:52;;;;;;;3.50;2.00;;;17.90;99.90;;;;;;5050710;28;20433;-68
2023/03/13 11:04:19;;;;;;;4.10;2.10;;;17.80;99.90;;;;;;5055870;28;20482;-67
2023/03/13 11:06:53;;;;;;;2.90;2.10;;;17.80;99.90;;;;;;5052514;28;20461;-68
2023/03/13 11:09:19;;;;;;;3.60;2.00;;;17.80;99.90;;;;;;5049531;28;20444;-68
2023/03/13 11:11:46;;;;;;;2.57;2.20;;;17.80;99.90;;;;;;5052790;28;20974;-68
2023/03/13 11:14:15;;;;;;;3.30;2.10;;;17.90;99.90;;;;;;5048159;28;20730;-67
2023/03/13 11:17:00;;;;;;;2.80;2.03;;;17.90;99.90;;;;;;5047552;28;20481;-67
2023/03/13 11:19:34;;;;;;;2.50;2.10;;;18.00;99.90;;;;;;5053089;28;20574;-68
2023/03/13 11:22:11;;;;;;;2.87;2.20;;;18.10;99.90;;;;;;5046405;28;20965;-67
2023/03/13 11:25:19;;;;;;;6.07;2.43;;;18.10;99.90;;;;;;5052874;28;20539;-68
2023/03/13 11:27:50;;;;;;;2.70;2.30;;;18.20;99.90;;;;;;5030199;28;20582;-68
2023/03/13 11:30:48;;;;;;;2.80;2.10;;;18.40;99.90;;;;;;5049127;28;20449;-67
2023/03/13 11:33:46;;;;;;;2.90;2.17;;;18.50;99.90;;;;;;5045466;28;20446;-69
2023/03/13 11:36:29;;;;;;;5.57;2.30;;;18.70;99.90;;;;;;5017084;28;20487;-68
2023/03/13 11:39:32;;;;;;;4.53;2.57;;;18.80;99.90;;;;;;5049056;28;20533;-68
2023/03/13 11:42:02;;;;;;;4.23;2.57;;;19.00;99.90;;;;;;5051200;28;20486;-69
2023/03/13 11:44:36;;;;;;;3.67;2.40;;;19.20;99.90;;;;;;5052954;28;20477;-68
2023/03/13 11:47:31;;;;;;;5.07;2.40;;;19.30;99.90;;;;;;5050181;28;20481;-68
2023/03/13 11:50:13;;;;;;;4.47;2.70;;;19.50;99.90;;;;;;5028334;28;21311;-68
2023/03/13 11:53:15;;;;;;;3.67;2.27;;;19.70;99.90;;;;;;5053871;28;20421;-68
2023/03/13 11:56:16;;;;;;;3.87;2.30;;;19.90;99.90;;;;;;5053273;28;20472;-67
2023/03/13 11:59:05;;;;;;;4.27;2.37;;;20.00;99.90;;;;;;5019055;28;20585;-68
2023/03/13 12:01:38;;;;;;;4.73;2.47;;;20.20;99.90;;;;;;5052429;28;20974;-68
2023/03/13 12:04:34;;;;;;;3.63;2.13;;;20.50;99.90;;;;;;5041920;28;20437;-67
2023/03/13 12:07:22;;;;;;;4.50;2.53;;;20.80;99.90;;;;;;5034091;28;20466;-66
2023/03/13 12:09:54;;;;;;;2.83;2.23;;;20.90;99.90;;;;;;5047848;28;20442;-66
2023/03/13 12:12:41;;;;;;;3.97;2.30;;;21.20;99.90;;;;;;5052783;28;20474;-68
2023/03/13 12:15:33;;;;;;;3.90;2.10;;;21.10;99.90;;;;;;5053486;28;20452;-65
2023/03/13 12:18:19;;;;;;;3.10;2.13;;;21.00;99.90;;;;;;5049506;28;20457;-66
2023/03/13 12:21:11;;;;;;;2.50;2.10;;;21.00;99.90;;;;;;5052740;28;20429;-66
2023/03/13 12:23:56;;;;;;;3.10;2.00;;;20.90;99.90;;;;;;5048619;28;20430;-65
2023/03/13 12:26:31;;;;;;;2.83;2.00;;;20.60;99.90;;;;;;5055367;28;20556;-66
2023/03/13 12:29:22;;;;;;;2.47;2.20;;;20.70;99.90;;;;;;5048825;28;20461;-66
2023/03/13 12:31:56;;;;;;;3.13;2.57;;;20.90;99.90;;;;;;5054916;28;20441;-66
2023/03/13 12:34:34;;;;;;;3.23;2.20;;;20.90;99.90;;;;;;5052367;28;20453;-65
2023/03/13 12:37:12;;;;;;;4.27;2.83;;;21.00;99.90;;;;;;5054626;28;20500;-66
2023/03/13 12:40:28;;;;;;;3.40;2.27;;;21.30;99.90;;;;;;5047259;28;20772;-65
2023/03/13 12:43:25;;;;;;;3.47;2.30;;;22.30;99.90;;;;;;5013704;28;20523;-66
2023/03/13 12:45:57;;;;;;;3.23;2.43;;;22.80;99.90;;;;;;5050770;28;20445;-66
2023/03/13 12:48:31;;;;;;;3.73;2.10;;;22.90;99.90;;;;;;5054923;28;20422;-66
2023/03/13 12:51:15;;;;;;;3.40;2.47;;;23.10;99.90;;;;;;5047265;28;21150;-67
2023/03/13 12:54:00;;;;;;;3.13;2.23;;;23.30;99.90;;;;;;5056168;28;20433;-67
2023/03/13 12:56:50;;;;;;;3.60;2.77;;;23.60;99.90;;;;;;5054520;28;20966;-67
2023/03/13 12:59:21;;;;;;;2.93;2.10;;;24.20;99.90;;;;;;5055550;28;20422;-67
2023/03/13 13:01:53;;;;;;;2.40;2.10;;;24.40;99.90;;;;;;5048083;28;20434;-65